createdAt,value
2018-10-12T00:01:43.509Z,98754.00
2018-10-12T00:04:12.740Z,98757.00
2018-10-12T00:06:42.005Z,98755.00
2018-10-12T00:09:11.805Z,98756.00
2018-10-12T00:11:40.900Z,98751.00
2018-10-12T00:14:10.363Z,98748.00
2018-10-12T00:16:39.464Z,98752.00
2018-10-12T00:19:08.593Z,98754.00
2018-10-12T00:21:37.718Z,98754.00
2018-10-12T00:24:07.276Z,98754.00
2018-10-12T00:26:36.349Z,98748.00
2018-10-12T00:29:05.700Z,98748.00
2018-10-12T00:31:34.787Z,98745.00
2018-10-12T00:34:03.840Z,98742.00
2018-10-12T00:36:32.921Z,98747.00
2018-10-12T00:39:01.993Z,98749.00
2018-10-12T00:41:31.044Z,98756.00
2018-10-12T00:44:00.207Z,98758.00
2018-10-12T00:46:29.261Z,98756.00
2018-10-12T00:48:58.352Z,98761.00
2018-10-12T00:51:27.960Z,98776.00
2018-10-12T00:53:57.265Z,98781.00
2018-10-12T00:56:26.353Z,98780.00
2018-10-12T00:58:55.461Z,98786.00
2018-10-12T01:01:24.549Z,98782.00
2018-10-12T01:03:53.644Z,98787.00
2018-10-12T01:06:23.320Z,98786.00
2018-10-12T01:08:52.444Z,98789.00
2018-10-12T01:11:21.488Z,98788.00
2018-10-12T01:13:50.845Z,98792.00
2018-10-12T01:16:19.916Z,98791.00
2018-10-12T01:18:49.524Z,98789.00
2018-10-12T01:21:18.583Z,98789.00
2018-10-12T01:23:47.640Z,98792.00
2018-10-12T01:26:16.708Z,98795.00
2018-10-12T01:28:50.104Z,98794.00
2018-10-12T01:31:19.520Z,98794.00
2018-10-12T01:33:48.628Z,98806.00
2018-10-12T01:36:17.732Z,98801.00
2018-10-12T01:38:46.917Z,98802.00
2018-10-12T01:41:15.992Z,98799.00
2018-10-12T01:43:45.916Z,98800.00
2018-10-12T01:46:15.024Z,98807.00
2018-10-12T01:48:44.072Z,98810.00
2018-10-12T01:51:13.832Z,98806.00
2018-10-12T01:53:42.924Z,98815.00
2018-10-12T01:56:12.121Z,98816.00
2018-10-12T01:58:41.316Z,98818.00
2018-10-12T02:01:10.360Z,98814.00
2018-10-12T02:03:40.076Z,98816.00
2018-10-12T02:06:09.200Z,98818.00
2018-10-12T02:08:38.281Z,98824.00
2018-10-12T02:11:07.613Z,98826.00
2018-10-12T02:13:36.771Z,98827.00
2018-10-12T02:16:06.296Z,98831.00
2018-10-12T02:18:35.368Z,98838.00
2018-10-12T02:21:04.472Z,98843.00
2018-10-12T02:23:33.561Z,98836.00
2018-10-12T02:26:02.664Z,98840.00
2018-10-12T02:28:31.796Z,98838.00
2018-10-12T02:31:00.898Z,98841.00
2018-10-12T02:33:29.985Z,98846.00
2018-10-12T02:35:59.089Z,98847.00
2018-10-12T02:38:28.193Z,98850.00
2018-10-12T02:40:57.273Z,98851.00
2018-10-12T02:43:26.365Z,98851.00
2018-10-12T02:45:55.416Z,98848.00
2018-10-12T02:48:24.964Z,98851.00
2018-10-12T02:50:54.064Z,98858.00
2018-10-12T02:53:23.124Z,98864.00
2018-10-12T02:55:52.620Z,98859.00
2018-10-12T02:58:22.121Z,98859.00
2018-10-12T03:00:51.216Z,98859.00
2018-10-12T03:03:21.076Z,98860.00
2018-10-12T03:05:50.148Z,98857.00
2018-10-12T03:08:19.264Z,98859.00
2018-10-12T03:10:48.521Z,98861.00
2018-10-12T03:13:17.566Z,98862.00
2018-10-12T03:15:46.610Z,98864.00
2018-10-12T03:18:15.733Z,98865.00
2018-10-12T03:20:44.849Z,98869.00
2018-10-12T03:23:13.916Z,98877.00
2018-10-12T03:25:43.037Z,98866.00
2018-10-12T03:28:27.764Z,98871.00
2018-10-12T03:30:57.464Z,98874.00
2018-10-12T03:33:27.649Z,98884.00
2018-10-12T03:35:57.646Z,98887.00
2018-10-12T03:38:26.704Z,98887.00
2018-10-12T03:40:55.813Z,98894.00
2018-10-12T03:43:25.236Z,98891.00
2018-10-12T03:45:54.395Z,98896.00
2018-10-12T03:48:23.688Z,98905.00
2018-10-12T03:50:52.808Z,98910.00
2018-10-12T03:53:21.977Z,98921.00
2018-10-12T03:55:51.130Z,98921.00
2018-10-12T03:58:20.220Z,98920.00
2018-10-12T04:00:49.320Z,98924.00
2018-10-12T04:03:19.024Z,98930.00
2018-10-12T04:05:48.124Z,98932.00
2018-10-12T04:08:17.260Z,98931.00
2018-10-12T04:10:46.320Z,98938.00
2018-10-12T04:13:15.385Z,98934.00
2018-10-12T04:15:44.481Z,98939.00
2018-10-12T04:18:13.553Z,98937.00
2018-10-12T04:20:42.609Z,98946.00
2018-10-12T04:23:11.701Z,98955.00
2018-10-12T04:25:40.771Z,98955.00
2018-10-12T04:28:09.852Z,98957.00
2018-10-12T04:30:38.980Z,98957.00
2018-10-12T04:33:08.289Z,98960.00
2018-10-12T04:35:37.904Z,98959.00
2018-10-12T04:38:07.109Z,98956.00
2018-10-12T04:41:13.913Z,98955.00
2018-10-12T04:43:43.485Z,98962.00
2018-10-12T04:46:17.892Z,98968.00
2018-10-12T04:48:48.213Z,98979.00
2018-10-12T04:51:24.207Z,98979.00
2018-10-12T04:53:53.457Z,98982.00
2018-10-12T04:56:23.079Z,98983.00
2018-10-12T04:58:52.985Z,98985.00
2018-10-12T05:01:22.109Z,98997.00
2018-10-12T05:03:51.281Z,98993.00
2018-10-12T05:06:20.425Z,98999.00
2018-10-12T05:08:49.552Z,98998.00
2018-10-12T05:11:18.616Z,98996.00
2018-10-12T05:13:47.764Z,98995.00
2018-10-12T05:16:16.776Z,98998.00
2018-10-12T05:18:45.909Z,99002.00
2018-10-12T05:21:15.936Z,99013.00
2018-10-12T05:23:45.067Z,99016.00
2018-10-12T05:26:14.085Z,99021.00
2018-10-12T05:28:43.132Z,99020.00
2018-10-12T05:31:12.220Z,99022.00
2018-10-12T05:33:41.325Z,99022.00
2018-10-12T05:36:10.510Z,99028.00
2018-10-12T05:38:39.540Z,99032.00
2018-10-12T05:41:08.632Z,99036.00
2018-10-12T05:43:37.856Z,99042.00
2018-10-12T05:46:06.900Z,99043.00
2018-10-12T05:49:50.792Z,99055.00
2018-10-12T05:52:19.884Z,99068.00
2018-10-12T05:54:48.928Z,99073.00
2018-10-12T05:57:18.064Z,99083.00
2018-10-12T05:59:47.260Z,99089.00
2018-10-12T06:02:16.432Z,99094.00
2018-10-12T06:04:49.076Z,99098.00
2018-10-12T06:07:18.185Z,99094.00
2018-10-12T06:09:47.870Z,99104.00
2018-10-12T06:12:17.204Z,99099.00
2018-10-12T06:14:46.312Z,99093.00
2018-10-12T06:17:15.385Z,99093.00
2018-10-12T06:19:44.488Z,99097.00
2018-10-12T06:22:13.621Z,99102.00
2018-10-12T06:24:42.885Z,99108.00
2018-10-12T06:27:11.969Z,99111.00
2018-10-12T06:29:41.109Z,99105.00
2018-10-12T06:32:10.673Z,99108.00
2018-10-12T06:34:39.820Z,99112.00
2018-10-12T06:37:09.324Z,99112.00
2018-10-12T06:39:38.485Z,99113.00
2018-10-12T06:42:07.580Z,99116.00
2018-10-12T06:44:36.628Z,99107.00
2018-10-12T06:47:05.885Z,99104.00
2018-10-12T06:49:34.924Z,99098.00
2018-10-12T06:52:04.096Z,99084.00
2018-10-12T06:54:33.872Z,99080.00
2018-10-12T06:57:03.007Z,99078.00
2018-10-12T06:59:32.019Z,99080.00
2018-10-12T07:02:01.117Z,99078.00
2018-10-12T07:04:30.176Z,99079.00
2018-10-12T07:06:59.588Z,99073.00
2018-10-12T07:09:28.729Z,99068.00
2018-10-12T07:11:57.772Z,99065.00
2018-10-12T07:14:27.853Z,99064.00
2018-10-12T07:16:56.916Z,99055.00
2018-10-12T07:19:26.003Z,99054.00
2018-10-12T07:21:55.084Z,99051.00
2018-10-12T07:24:24.228Z,99048.00
2018-10-12T07:26:53.340Z,99044.00
2018-10-12T07:29:22.477Z,99046.00
2018-10-12T07:31:51.578Z,99052.00
2018-10-12T07:34:21.193Z,99048.00
2018-10-12T07:36:50.264Z,99047.00
2018-10-12T07:39:19.371Z,99045.00
2018-10-12T07:41:48.424Z,99057.00
2018-10-12T07:44:17.557Z,99060.00
2018-10-12T07:46:47.024Z,99053.00
2018-10-12T07:49:16.156Z,99054.00
2018-10-12T07:51:45.252Z,99052.00
2018-10-12T07:54:14.340Z,99052.00
2018-10-12T07:56:43.440Z,99075.00
2018-10-12T07:59:12.500Z,99059.00
2018-10-12T08:01:41.799Z,99061.00
2018-10-12T08:04:11.080Z,99072.00
2018-10-12T08:06:40.296Z,99066.00
2018-10-12T08:09:09.665Z,99071.00
2018-10-12T08:11:39.064Z,99073.00
2018-10-12T08:14:08.233Z,99066.00
2018-10-12T08:16:37.342Z,99066.00
2018-10-12T08:19:06.763Z,99058.00
2018-10-12T08:21:35.980Z,99050.00
2018-10-12T08:24:05.104Z,99050.00
2018-10-12T08:26:34.228Z,99059.00
2018-10-12T08:29:03.301Z,99052.00
2018-10-12T08:31:32.510Z,99053.00
2018-10-12T08:34:01.500Z,99061.00
2018-10-12T08:36:30.686Z,99066.00
2018-10-12T08:38:59.879Z,99062.00
2018-10-12T08:41:29.001Z,99070.00
2018-10-12T08:43:58.077Z,99071.00
2018-10-12T08:46:27.101Z,99064.00
2018-10-12T08:48:56.211Z,99068.00
2018-10-12T08:51:25.321Z,99067.00
2018-10-12T08:53:54.484Z,99078.00
2018-10-12T08:56:23.620Z,99077.00
2018-10-12T08:58:52.689Z,99072.00
2018-10-12T09:01:21.780Z,99077.00
2018-10-12T09:03:50.824Z,99075.00
2018-10-12T09:06:20.057Z,99093.00
2018-10-12T09:08:49.096Z,99093.00
2018-10-12T09:11:18.240Z,99093.00
2018-10-12T09:13:47.604Z,99094.00
2018-10-12T09:16:17.287Z,99092.00
2018-10-12T09:18:46.373Z,99092.00
2018-10-12T09:21:15.448Z,99095.00
2018-10-12T09:23:44.500Z,99095.00
2018-10-12T09:26:13.599Z,99095.00
2018-10-12T09:28:42.652Z,99089.00
2018-10-12T09:31:11.933Z,99090.00
2018-10-12T09:33:40.992Z,99088.00
2018-10-12T09:36:10.132Z,99104.00
2018-10-12T09:38:39.260Z,99109.00
2018-10-12T09:41:08.295Z,99119.00
2018-10-12T09:43:37.389Z,99108.00
2018-10-12T09:46:06.480Z,99109.00
2018-10-12T09:48:35.603Z,99103.00
2018-10-12T09:51:04.673Z,99107.00
2018-10-12T09:53:33.793Z,99116.00
2018-10-12T09:56:02.961Z,99110.00
2018-10-12T09:58:31.951Z,99117.00
2018-10-12T10:01:06.404Z,99112.00
2018-10-12T10:03:40.956Z,99115.00
2018-10-12T10:06:10.037Z,99111.00
2018-10-12T10:08:39.216Z,99113.00
2018-10-12T10:11:08.496Z,99111.00
2018-10-12T10:13:37.663Z,99113.00
2018-10-12T10:16:06.705Z,99101.00
2018-10-12T10:18:36.213Z,99103.00
2018-10-12T10:21:05.238Z,99104.00
2018-10-12T10:23:34.292Z,99103.00
2018-10-12T10:26:03.988Z,99103.00
2018-10-12T10:28:33.000Z,99109.00
2018-10-12T10:31:02.064Z,99106.00
2018-10-12T10:33:31.189Z,99102.00
2018-10-12T10:36:00.212Z,99103.00
2018-10-12T10:38:29.264Z,99109.00
2018-10-12T10:40:58.397Z,99106.00
2018-10-12T10:43:27.477Z,99097.00
2018-10-12T10:45:56.596Z,99102.00
2018-10-12T10:48:25.694Z,99098.00
2018-10-12T10:50:54.737Z,99091.00
2018-10-12T10:53:23.814Z,99092.00
2018-10-12T10:55:52.928Z,99085.00
2018-10-12T10:58:22.049Z,99081.00
2018-10-12T11:00:51.449Z,99073.00
2018-10-12T11:03:20.489Z,99067.00
2018-10-12T11:05:49.583Z,99074.00
2018-10-12T11:08:18.710Z,99065.00
2018-10-12T11:10:47.791Z,99070.00
2018-10-12T11:13:16.945Z,99075.00
2018-10-12T11:15:45.921Z,99075.00
2018-10-12T11:18:15.008Z,99076.00
2018-10-12T11:20:44.035Z,99078.00
2018-10-12T11:23:13.081Z,99068.00
2018-10-12T11:25:42.292Z,99065.00
2018-10-12T11:28:11.372Z,99056.00
2018-10-12T11:30:40.496Z,99057.00
2018-10-12T11:33:09.734Z,99050.00
2018-10-12T11:35:38.784Z,99050.00
2018-10-12T11:38:07.844Z,99052.00
2018-10-12T11:40:36.992Z,99050.00
2018-10-12T11:43:21.804Z,99059.00
2018-10-12T11:45:50.904Z,99053.00
2018-10-12T11:48:20.912Z,99065.00
2018-10-12T11:50:50.144Z,99059.00
2018-10-12T11:53:19.248Z,99058.00
2018-10-12T11:55:48.297Z,99053.00
2018-10-12T11:58:17.596Z,99047.00
2018-10-12T12:00:46.785Z,99055.00
2018-10-12T12:03:15.776Z,99053.00
2018-10-12T12:05:44.884Z,99051.00
2018-10-12T12:08:13.963Z,99052.00
2018-10-12T12:10:43.436Z,99057.00
2018-10-12T12:13:12.492Z,99061.00
2018-10-12T12:15:41.572Z,99057.00
2018-10-12T12:18:10.632Z,99063.00
2018-10-12T12:20:39.696Z,99065.00
2018-10-12T12:23:08.865Z,99047.00
2018-10-12T12:25:37.952Z,99049.00
2018-10-12T12:28:07.220Z,99040.00
2018-10-12T12:30:36.397Z,99041.00
2018-10-12T12:33:05.468Z,99036.00
2018-10-12T12:35:34.714Z,99033.00
2018-10-12T12:38:03.648Z,99036.00
2018-10-12T12:40:32.704Z,99030.00
2018-10-12T12:43:01.793Z,99038.00
2018-10-12T12:45:30.921Z,99041.00
2018-10-12T12:48:00.162Z,99045.00
2018-10-12T12:50:29.132Z,99041.00
2018-10-12T12:52:58.308Z,99041.00
2018-10-12T12:55:27.340Z,99036.00
2018-10-12T12:57:56.656Z,99038.00
2018-10-12T13:00:25.927Z,99031.00
2018-10-12T13:02:54.966Z,99036.00
2018-10-12T13:05:24.158Z,99031.00
2018-10-12T13:07:53.508Z,99030.00
2018-10-12T13:10:22.532Z,99030.00
2018-10-12T13:12:51.736Z,99036.00
2018-10-12T13:15:20.772Z,99040.00
2018-10-12T13:17:49.924Z,99030.00
2018-10-12T13:20:18.916Z,99033.00
2018-10-12T13:22:48.069Z,99037.00
2018-10-12T13:25:17.212Z,99040.00
2018-10-12T13:27:46.268Z,99039.00
2018-10-12T13:30:15.468Z,99041.00
2018-10-12T13:32:44.496Z,99038.00
2018-10-12T13:35:13.556Z,99035.00
2018-10-12T13:37:42.671Z,99042.00
2018-10-12T13:40:11.788Z,99043.00
2018-10-12T13:42:41.413Z,99047.00
2018-10-12T13:45:10.540Z,99054.00
2018-10-12T13:47:39.684Z,99064.00
2018-10-12T13:50:08.867Z,99058.00
2018-10-12T13:52:37.976Z,99060.00
2018-10-12T13:55:07.140Z,99064.00
2018-10-12T13:57:36.244Z,99061.00
2018-10-12T14:00:05.469Z,99067.00
2018-10-12T14:02:34.565Z,99065.00
2018-10-12T14:05:03.624Z,99065.00
2018-10-12T14:07:32.745Z,99073.00
2018-10-12T14:10:01.788Z,99067.00
2018-10-12T14:12:30.967Z,99071.00
2018-10-12T14:14:59.993Z,99073.00
2018-10-12T14:17:29.157Z,99076.00
2018-10-12T14:19:58.266Z,99081.00
2018-10-12T14:22:27.265Z,99083.00
2018-10-12T14:24:56.297Z,99086.00
2018-10-12T14:27:25.369Z,99081.00
2018-10-12T14:29:54.414Z,99083.00
2018-10-12T14:32:23.484Z,99082.00
2018-10-12T14:34:52.600Z,99087.00
2018-10-12T14:37:21.636Z,99088.00
2018-10-12T14:39:50.789Z,99085.00
2018-10-12T14:42:19.804Z,99085.00
2018-10-12T14:44:48.943Z,99088.00
2018-10-12T14:47:17.996Z,99091.00
2018-10-12T14:49:47.296Z,99093.00
2018-10-12T14:52:16.344Z,99098.00
2018-10-12T14:54:45.550Z,99095.00
2018-10-12T14:57:19.260Z,99090.00
2018-10-12T14:59:49.625Z,99097.00
2018-10-12T15:02:20.000Z,99096.00
2018-10-12T15:04:49.128Z,99099.00
2018-10-12T15:07:18.631Z,99104.00
2018-10-12T15:09:47.612Z,99104.00
2018-10-12T15:12:16.705Z,99099.00
2018-10-12T15:15:03.000Z,99098.00
2018-10-12T15:17:32.148Z,99100.00
2018-10-12T15:20:01.217Z,99096.00
2018-10-12T15:22:30.294Z,99103.00
2018-10-12T15:24:59.389Z,99103.00
2018-10-12T15:27:28.460Z,99111.00
2018-10-12T15:29:57.639Z,99101.00
2018-10-12T15:32:26.676Z,99102.00
2018-10-12T15:34:55.740Z,99106.00
2018-10-12T15:37:25.083Z,99111.00
2018-10-12T15:39:54.165Z,99114.00
2018-10-12T15:42:23.224Z,99118.00
2018-10-12T15:44:52.337Z,99122.00
2018-10-12T15:47:21.887Z,99124.00
2018-10-12T15:49:50.934Z,99120.00
2018-10-12T15:52:20.053Z,99121.00
2018-10-12T15:54:49.556Z,99120.00
2018-10-12T15:57:20.656Z,99122.00
2018-10-12T15:59:50.580Z,99124.00
2018-10-12T16:02:19.688Z,99122.00
2018-10-12T16:04:48.804Z,99120.00
2018-10-12T16:07:18.200Z,99121.00
2018-10-12T16:09:49.077Z,99119.00
2018-10-12T16:12:19.188Z,99119.00
2018-10-12T16:14:48.416Z,99121.00
2018-10-12T16:17:17.833Z,99124.00
2018-10-12T16:19:46.966Z,99130.00
2018-10-12T16:22:16.056Z,99131.00
2018-10-12T16:25:02.528Z,99139.00
2018-10-12T16:27:31.620Z,99143.00
2018-10-12T16:30:00.696Z,99145.00
2018-10-12T16:32:29.824Z,99146.00
2018-10-12T16:34:58.864Z,99146.00
2018-10-12T16:37:27.944Z,99151.00
2018-10-12T16:39:57.027Z,99151.00
2018-10-12T16:42:26.072Z,99157.00
2018-10-12T16:44:55.189Z,99151.00
2018-10-12T16:47:24.292Z,99153.00
2018-10-12T16:49:53.372Z,99156.00
2018-10-12T16:52:22.429Z,99161.00
2018-10-12T16:54:51.505Z,99162.00
2018-10-12T16:57:30.589Z,99163.00
2018-10-12T17:00:00.080Z,99165.00
2018-10-12T17:02:29.156Z,99166.00
2018-10-12T17:04:58.225Z,99167.00
2018-10-12T17:07:27.300Z,99169.00
2018-10-12T17:09:56.307Z,99167.00
2018-10-12T17:12:25.395Z,99170.00
2018-10-12T17:14:54.480Z,99169.00
2018-10-12T17:17:23.601Z,99172.00
2018-10-12T17:19:52.698Z,99175.00
2018-10-12T17:22:21.739Z,99176.00
2018-10-12T17:24:50.852Z,99177.00
2018-10-12T17:27:19.904Z,99179.00
2018-10-12T17:29:49.589Z,99176.00
2018-10-12T17:32:18.627Z,99186.00
2018-10-12T17:34:47.700Z,99187.00
2018-10-12T17:37:16.828Z,99192.00
2018-10-12T17:39:45.897Z,99191.00
2018-10-12T17:42:17.521Z,99195.00
2018-10-12T17:44:46.905Z,99198.00
2018-10-12T17:47:16.716Z,99198.00
2018-10-12T17:49:46.326Z,99205.00
2018-10-12T17:52:15.369Z,99204.00
2018-10-12T17:54:44.424Z,99211.00
2018-10-12T17:57:13.576Z,99211.00
2018-10-12T17:59:42.728Z,99212.00
2018-10-12T18:02:12.092Z,99215.00
2018-10-12T18:04:41.172Z,99216.00
2018-10-12T18:07:10.276Z,99213.00
2018-10-12T18:09:39.369Z,99218.00
2018-10-12T18:12:08.617Z,99218.00
2018-10-12T18:14:37.686Z,99222.00
2018-10-12T18:17:06.881Z,99223.00
2018-10-12T18:19:36.266Z,99223.00
2018-10-12T18:22:05.280Z,99229.00
2018-10-12T18:24:34.375Z,99229.00
2018-10-12T18:27:03.459Z,99229.00
2018-10-12T18:29:32.564Z,99229.00
2018-10-12T18:32:01.650Z,99229.00
2018-10-12T18:34:30.717Z,99232.00
2018-10-12T18:36:59.942Z,99232.00
2018-10-12T18:39:28.973Z,99233.00
2018-10-12T18:41:58.060Z,99240.00
2018-10-12T18:44:27.104Z,99241.00
2018-10-12T18:46:56.220Z,99239.00
2018-10-12T18:49:25.260Z,99240.00
2018-10-12T18:51:54.505Z,99247.00
2018-10-12T18:54:23.540Z,99246.00
2018-10-12T18:56:52.600Z,99242.00
2018-10-12T18:59:21.778Z,99247.00
2018-10-12T19:01:51.224Z,99242.00
2018-10-12T19:04:20.292Z,99242.00
2018-10-12T19:06:50.350Z,99243.00
2018-10-12T19:09:19.446Z,99249.00
2018-10-12T19:11:48.532Z,99244.00
2018-10-12T19:14:17.660Z,99250.00
2018-10-12T19:16:46.724Z,99249.00
2018-10-12T19:19:15.970Z,99252.00
2018-10-12T19:21:45.016Z,99250.00
2018-10-12T19:24:14.294Z,99249.00
2018-10-12T19:26:43.287Z,99253.00
2018-10-12T19:29:12.468Z,99248.00
2018-10-12T19:31:41.551Z,99252.00
2018-10-12T19:34:10.584Z,99252.00
2018-10-12T19:36:39.664Z,99248.00
2018-10-12T19:39:09.889Z,99258.00
2018-10-12T19:41:39.021Z,99257.00
2018-10-12T19:44:09.440Z,99261.00
2018-10-12T19:46:38.640Z,99264.00
2018-10-12T19:49:07.835Z,99262.00
2018-10-12T19:51:36.924Z,99266.00
2018-10-12T19:54:06.089Z,99266.00
2018-10-12T19:56:35.162Z,99275.00
2018-10-12T19:59:04.332Z,99275.00
2018-10-12T20:01:33.390Z,99272.00
2018-10-12T20:04:02.898Z,99278.00
2018-10-12T20:06:31.985Z,99281.00
2018-10-12T20:09:01.040Z,99280.00
2018-10-12T20:11:30.172Z,99290.00
2018-10-12T20:13:59.305Z,99289.00
2018-10-12T20:16:28.405Z,99288.00
2018-10-12T20:18:57.474Z,99284.00
2018-10-12T20:21:26.593Z,99288.00
2018-10-12T20:23:55.647Z,99282.00
2018-10-12T20:26:24.727Z,99284.00
2018-10-12T20:28:53.800Z,99288.00
2018-10-12T20:31:23.248Z,99285.00
2018-10-12T20:33:52.376Z,99289.00
2018-10-12T20:36:21.436Z,99285.00
2018-10-12T20:38:50.528Z,99287.00
2018-10-12T20:41:19.616Z,99286.00
2018-10-12T20:43:48.676Z,99289.00
2018-10-12T20:46:17.724Z,99290.00
2018-10-12T20:48:46.840Z,99291.00
2018-10-12T20:51:15.941Z,99295.00
2018-10-12T20:53:45.709Z,99293.00
2018-10-12T20:56:14.849Z,99295.00
2018-10-12T20:58:43.888Z,99297.00
2018-10-12T21:01:13.037Z,99297.00
2018-10-12T21:03:42.191Z,99300.00
2018-10-12T21:06:11.253Z,99295.00
2018-10-12T21:08:40.324Z,99299.00
2018-10-12T21:11:09.396Z,99301.00
2018-10-12T21:13:38.663Z,99304.00
2018-10-12T21:16:08.626Z,99296.00
2018-10-12T21:18:37.793Z,99298.00
2018-10-12T21:21:06.978Z,99303.00
2018-10-12T21:23:36.016Z,99300.00
2018-10-12T21:26:05.121Z,99296.00
2018-10-12T21:28:34.180Z,99293.00
2018-10-12T21:31:03.252Z,99297.00
2018-10-12T21:33:32.361Z,99300.00
2018-10-12T21:36:01.501Z,99295.00
2018-10-12T21:38:30.572Z,99300.00
2018-10-12T21:40:59.713Z,99293.00
2018-10-12T21:43:28.784Z,99292.00
2018-10-12T21:45:57.904Z,99289.00
2018-10-12T21:48:27.173Z,99290.00
2018-10-12T21:50:56.253Z,99293.00
2018-10-12T21:53:25.268Z,99295.00
2018-10-12T21:55:54.528Z,99293.00
2018-10-12T21:58:23.612Z,99291.00
2018-10-12T22:00:58.060Z,99286.00
2018-10-12T22:03:27.077Z,99285.00
2018-10-12T22:05:56.317Z,99283.00
2018-10-12T22:08:30.720Z,99284.00
2018-10-12T22:10:59.859Z,99284.00
2018-10-12T22:13:29.012Z,99279.00
2018-10-12T22:15:58.132Z,99285.00
2018-10-12T22:18:27.544Z,99277.00
2018-10-12T22:20:56.653Z,99281.00
2018-10-12T22:23:25.848Z,99278.00
2018-10-12T22:25:55.051Z,99278.00
2018-10-12T22:28:24.134Z,99273.00
2018-10-12T22:30:53.248Z,99271.00
2018-10-12T22:33:22.372Z,99269.00
2018-10-12T22:35:51.454Z,99270.00
2018-10-12T22:38:20.537Z,99266.00
2018-10-12T22:40:49.784Z,99263.00
2018-10-12T22:43:18.816Z,99258.00
2018-10-12T22:45:47.925Z,99259.00
2018-10-12T22:48:17.051Z,99266.00
2018-10-12T22:50:46.112Z,99264.00
2018-10-12T22:53:15.256Z,99264.00
2018-10-12T22:55:44.413Z,99264.00
2018-10-12T22:58:13.503Z,99259.00
2018-10-12T23:00:42.612Z,99265.00
2018-10-12T23:03:12.737Z,99261.00
2018-10-12T23:05:41.828Z,99265.00
2018-10-12T23:08:10.932Z,99264.00
2018-10-12T23:10:40.648Z,99260.00
2018-10-12T23:13:09.686Z,99257.00
2018-10-12T23:15:38.808Z,99260.00
2018-10-12T23:18:07.905Z,99260.00
2018-10-12T23:20:36.920Z,99256.00
2018-10-12T23:23:06.352Z,99256.00
2018-10-12T23:25:35.440Z,99252.00
2018-10-12T23:28:04.523Z,99247.00
2018-10-12T23:30:33.629Z,99249.00
2018-10-12T23:33:19.884Z,99242.00
2018-10-12T23:35:48.960Z,99245.00
2018-10-12T23:38:18.030Z,99248.00
2018-10-12T23:40:47.416Z,99251.00
2018-10-12T23:43:16.550Z,99243.00
2018-10-12T23:45:45.580Z,99254.00
2018-10-12T23:48:14.660Z,99251.00
2018-10-12T23:50:43.798Z,99254.00
2018-10-12T23:53:12.944Z,99255.00
2018-10-12T23:55:42.033Z,99249.00
2018-10-12T23:58:11.107Z,99253.00
